Time;durP1;ratioP1;P1;durP2;ratioP2;P2;SDS_P1;SDS_P2;PMS_P1;PMS_P2;Temp;Humidity;BMP_temperature;BMP_pressure;BME280_temperature;BME280_humidity;BME280_pressure;Samples;Min_cycle;Max_cycle;Signal;HPM_P1;HPM_P2
2023/03/18 00:00:52;;;;;;;7.43;2.70;;;13.70;64.70;;;;;;9175030;19;20014;-65
2023/03/18 00:03:56;;;;;;;10.48;3.03;;;13.70;64.80;;;;;;9175652;19;20022;-65
2023/03/18 00:07:02;;;;;;;9.63;2.75;;;13.70;64.80;;;;;;9177510;19;20370;-65
2023/03/18 00:10:08;;;;;;;7.13;2.47;;;13.70;65.50;;;;;;9176597;19;20022;-65
2023/03/18 00:13:14;;;;;;;8.13;2.72;;;13.60;64.80;;;;;;9179476;19;20011;-65
2023/03/18 00:16:20;;;;;;;11.82;2.90;;;13.60;64.90;;;;;;9178872;19;20018;-65
2023/03/18 00:19:26;;;;;;;7.10;2.60;;;13.70;64.90;;;;;;9179703;19;20364;-66
2023/03/18 00:22:30;;;;;;;6.25;2.70;;;13.60;64.90;;;;;;9180452;19;20455;-65
2023/03/18 00:25:37;;;;;;;7.00;2.78;;;13.70;65.00;;;;;;9180014;19;20015;-65
2023/03/18 00:28:41;;;;;;;9.57;3.80;;;13.60;64.90;;;;;;9179938;19;20046;-64
2023/03/18 00:31:50;;;;;;;5.10;2.63;;;13.60;65.00;;;;;;9178968;19;20015;-65
2023/03/18 00:34:54;;;;;;;11.60;2.70;;;13.70;65.00;;;;;;9177553;19;20017;-65
2023/03/18 00:38:02;;;;;;;7.53;2.63;;;13.60;65.00;;;;;;9179556;19;20482;-65
2023/03/18 00:41:14;;;;;;;7.43;2.55;;;13.60;65.10;;;;;;9178970;19;20034;-65
2023/03/18 00:44:21;;;;;;;4.60;2.67;;;13.60;65.00;;;;;;9178331;19;20050;-65
2023/03/18 00:47:27;;;;;;;9.43;3.17;;;13.60;65.10;;;;;;9178943;19;20042;-67
2023/03/18 00:50:33;;;;;;;4.38;3.00;;;13.60;65.10;;;;;;9179251;19;20014;-66
2023/03/18 00:53:37;;;;;;;7.38;2.92;;;13.50;65.00;;;;;;9177271;19;20468;-64
2023/03/18 00:56:43;;;;;;;10.35;3.15;;;13.50;65.10;;;;;;9177858;19;20022;-64
2023/03/18 00:59:47;;;;;;;11.45;3.40;;;13.50;65.20;;;;;;9173400;19;20017;-64
2023/03/18 01:02:55;;;;;;;7.43;3.58;;;13.40;65.20;;;;;;9174248;19;20014;-65
2023/03/18 01:06:01;;;;;;;10.10;3.58;;;13.40;65.30;;;;;;9177624;19;20479;-65
2023/03/18 01:09:10;;;;;;;14.65;4.18;;;13.40;65.30;;;;;;9174566;19;20014;-65
2023/03/18 01:12:17;;;;;;;9.20;3.60;;;13.30;65.40;;;;;;9176453;19;20014;-64
2023/03/18 01:15:23;;;;;;;8.35;3.70;;;13.30;65.40;;;;;;9175601;19;20009;-64
2023/03/18 01:18:29;;;;;;;12.85;3.88;;;13.30;65.50;;;;;;9176724;19;20011;-64
2023/03/18 01:21:35;;;;;;;10.05;3.88;;;13.30;65.60;;;;;;9177089;19;20014;-64
2023/03/18 01:24:39;;;;;;;10.25;3.80;;;13.20;65.60;;;;;;9176080;19;20590;-65
2023/03/18 01:27:45;;;;;;;10.88;3.83;;;13.20;65.70;;;;;;9173464;19;20022;-65
2023/03/18 01:30:50;;;;;;;6.25;3.05;;;13.20;65.70;;;;;;9177488;19;20020;-65
2023/03/18 01:34:02;;;;;;;12.40;3.75;;;13.20;65.80;;;;;;9174626;19;20375;-65
2023/03/18 01:37:15;;;;;;;11.20;4.10;;;13.20;65.80;;;;;;9175122;19;20515;-65
2023/03/18 01:40:25;;;;;;;11.65;3.45;;;13.20;65.90;;;;;;9175737;19;20482;-65
2023/03/18 01:43:33;;;;;;;8.20;3.47;;;13.10;65.90;;;;;;9175124;19;20030;-65
2023/03/18 01:46:41;;;;;;;7.70;3.40;;;13.10;66.00;;;;;;9175173;19;20018;-65
2023/03/18 01:49:51;;;;;;;12.75;3.70;;;13.10;66.00;;;;;;9175829;19;20026;-65
2023/03/18 01:53:00;;;;;;;7.28;3.28;;;13.10;66.10;;;;;;9166445;19;20018;-65
2023/03/18 01:56:05;;;;;;;11.57;3.72;;;13.10;66.10;;;;;;9170358;19;20018;-65
2023/03/18 01:59:12;;;;;;;7.15;3.42;;;13.10;66.20;;;;;;9168206;19;20014;-65
2023/03/18 02:02:18;;;;;;;20.10;4.20;;;13.00;66.20;;;;;;9172796;19;20015;-65
2023/03/18 02:05:29;;;;;;;9.90;3.60;;;13.00;66.20;;;;;;9175081;19;20011;-65
2023/03/18 02:08:33;;;;;;;13.43;3.40;;;13.00;66.20;;;;;;9173204;19;20019;-65
2023/03/18 02:11:44;;;;;;;13.65;3.35;;;13.00;66.20;;;;;;9172789;19;20011;-65
2023/03/18 02:14:51;;;;;;;12.80;5.32;;;12.90;66.30;;;;;;9171848;19;20019;-65
2023/03/18 02:18:04;;;;;;;10.48;4.18;;;12.90;66.40;;;;;;9172537;19;20459;-65
2023/03/18 02:21:26;;;;;;;7.82;3.80;;;12.90;66.40;;;;;;9174115;19;20029;-64
2023/03/18 02:24:39;;;;;;;10.48;3.75;;;12.90;66.50;;;;;;9173538;19;21430;-65
2023/03/18 02:27:58;;;;;;;8.40;4.07;;;12.90;66.50;;;;;;9172557;19;20014;-65
2023/03/18 02:31:12;;;;;;;8.63;3.88;;;12.80;66.50;;;;;;9172777;19;20484;-64
2023/03/18 02:34:18;;;;;;;6.18;3.67;;;12.80;66.60;;;;;;9171617;19;20050;-65
2023/03/18 02:37:24;;;;;;;10.20;4.85;;;12.80;66.60;;;;;;9173666;19;20022;-64
2023/03/18 02:40:31;;;;;;;11.98;4.20;;;12.80;66.70;;;;;;9180747;19;20018;-65
2023/03/18 02:43:41;;;;;;;16.58;4.30;;;12.70;66.70;;;;;;9178367;19;20006;-65
2023/03/18 02:46:54;;;;;;;12.43;4.22;;;12.80;66.80;;;;;;9182281;19;20482;-65
2023/03/18 02:50:01;;;;;;;10.68;4.30;;;12.70;66.90;;;;;;9179890;19;20384;-64
2023/03/18 02:53:06;;;;;;;8.75;4.07;;;12.70;66.90;;;;;;9182201;19;20022;-65
2023/03/18 02:56:13;;;;;;;11.55;4.45;;;12.60;66.90;;;;;;9176797;19;20018;-65
2023/03/18 02:59:22;;;;;;;14.15;4.78;;;12.70;67.00;;;;;;9175641;19;20087;-64
2023/03/18 03:02:28;;;;;;;12.85;4.82;;;12.60;67.10;;;;;;9179615;19;20118;-65
2023/03/18 03:05:34;;;;;;;13.93;5.20;;;12.60;67.10;;;;;;9181266;19;20022;-64
2023/03/18 03:08:40;;;;;;;13.80;4.13;;;12.60;67.20;;;;;;9180760;19;20356;-65
2023/03/18 03:11:47;;;;;;;14.13;4.97;;;12.60;67.20;;;;;;9179656;19;20026;-65
2023/03/18 03:15:00;;;;;;;10.35;4.90;;;12.60;67.30;;;;;;9178165;19;20931;-65
2023/03/18 03:18:08;;;;;;;12.45;4.80;;;12.60;67.30;;;;;;9179497;19;20014;-65
2023/03/18 03:21:16;;;;;;;14.93;5.60;;;12.60;67.40;;;;;;9179288;19;20006;-65
2023/03/18 03:24:21;;;;;;;17.85;5.50;;;12.60;67.50;;;;;;9180847;19;20022;-65
2023/03/18 03:27:27;;;;;;;10.48;4.78;;;12.60;67.50;;;;;;9180731;19;20010;-65
2023/03/18 03:30:33;;;;;;;12.85;5.07;;;12.60;67.60;;;;;;9180904;19;20014;-64
2023/03/18 03:33:42;;;;;;;16.85;5.75;;;12.50;67.60;;;;;;9178647;19;20474;-65
2023/03/18 03:36:46;;;;;;;11.27;5.15;;;12.50;67.70;;;;;;9177142;19;20014;-65
2023/03/18 03:39:52;;;;;;;20.67;5.30;;;12.50;67.80;;;;;;9181062;19;20018;-64
2023/03/18 03:42:56;;;;;;;14.20;5.57;;;12.50;67.80;;;;;;9178536;19;20014;-65
2023/03/18 03:46:04;;;;;;;10.35;5.47;;;12.50;67.80;;;;;;9180175;19;20010;-65
2023/03/18 03:49:09;;;;;;;16.00;5.50;;;12.50;68.00;;;;;;9176837;19;20019;-64
2023/03/18 03:52:17;;;;;;;12.32;5.03;;;12.50;68.00;;;;;;9176504;19;20017;-65
2023/03/18 03:55:23;;;;;;;13.63;5.07;;;12.50;68.00;;;;;;9176622;19;20038;-65
2023/03/18 03:58:30;;;;;;;13.63;5.13;;;12.50;68.10;;;;;;9173260;19;20022;-65
2023/03/18 04:01:36;;;;;;;;;;;12.50;68.10;;;;;;9179547;19;20019;-65
2023/03/18 04:04:42;;;;;;;12.07;5.53;;;12.50;68.10;;;;;;9179780;19;19926;-65
2023/03/18 04:07:58;;;;;;;17.15;5.72;;;12.50;68.00;;;;;;9172841;19;20034;-65
2023/03/18 04:11:16;;;;;;;12.35;4.68;;;12.50;68.20;;;;;;9178372;19;20511;-65
2023/03/18 04:14:20;;;;;;;16.65;6.90;;;12.50;68.30;;;;;;9177868;19;20086;-65
2023/03/18 04:17:28;;;;;;;15.52;5.57;;;12.50;68.40;;;;;;9177671;19;20014;-65
2023/03/18 04:20:32;;;;;;;11.88;4.93;;;12.50;68.50;;;;;;9179947;19;20475;-65
2023/03/18 04:23:41;;;;;;;11.18;5.18;;;12.40;68.50;;;;;;9178308;19;20488;-65
2023/03/18 04:26:45;;;;;;;17.20;5.10;;;12.40;68.60;;;;;;9177805;19;20047;-64
2023/03/18 04:29:52;;;;;;;12.15;5.32;;;12.40;68.70;;;;;;9177351;19;20019;-65
2023/03/18 04:33:00;;;;;;;11.88;5.88;;;12.40;68.70;;;;;;9177566;19;20013;-65
2023/03/18 04:36:08;;;;;;;11.18;5.43;;;12.40;68.80;;;;;;9174870;19;20011;-65
2023/03/18 04:39:14;;;;;;;11.57;5.20;;;12.40;68.90;;;;;;9177087;19;20054;-65
2023/03/18 04:42:20;;;;;;;12.00;6.03;;;12.40;68.90;;;;;;9176662;19;20015;-65
2023/03/18 04:45:24;;;;;;;14.95;5.90;;;12.40;69.00;;;;;;9176689;19;20014;-65
2023/03/18 04:48:36;;;;;;;22.25;6.22;;;12.40;69.00;;;;;;9172948;19;20011;-65
2023/03/18 04:51:41;;;;;;;16.17;6.25;;;12.40;69.10;;;;;;9176743;19;20582;-65
2023/03/18 04:54:57;;;;;;;17.05;6.03;;;12.40;69.10;;;;;;9175249;19;20010;-65
2023/03/18 04:58:02;;;;;;;14.10;6.35;;;12.40;69.20;;;;;;9172587;19;20473;-65
2023/03/18 05:01:14;;;;;;;13.05;5.50;;;12.30;69.20;;;;;;9176896;19;20025;-65
2023/03/18 05:04:21;;;;;;;12.30;5.90;;;12.30;69.30;;;;;;9175513;19;20011;-65
2023/03/18 05:07:31;;;;;;;18.33;6.00;;;12.30;69.40;;;;;;9174912;19;20010;-64
2023/03/18 05:10:40;;;;;;;13.75;6.38;;;12.30;69.40;;;;;;9177194;19;20019;-64
2023/03/18 05:13:50;;;;;;;12.00;5.47;;;12.30;69.40;;;;;;9175185;19;20002;-64
2023/03/18 05:16:56;;;;;;;14.63;5.55;;;12.30;69.50;;;;;;9171125;19;20395;-64
2023/03/18 05:20:05;;;;;;;16.80;6.80;;;12.30;70.20;;;;;;9176202;19;20015;-65
2023/03/18 05:23:10;;;;;;;12.57;5.90;;;12.30;69.70;;;;;;9176844;19;20598;-65
2023/03/18 05:26:23;;;;;;;17.35;7.13;;;12.30;69.80;;;;;;9176313;19;20025;-64
2023/03/18 05:29:27;;;;;;;16.13;6.28;;;12.30;69.90;;;;;;9175345;19;20070;-64
2023/03/18 05:32:52;;;;;;;16.85;7.25;;;12.20;69.90;;;;;;9175349;19;20017;-65
2023/03/18 05:36:05;;;;;;;21.77;6.75;;;12.20;70.00;;;;;;9173166;19;20022;-64
2023/03/18 05:39:17;;;;;;;15.68;7.28;;;12.20;70.10;;;;;;9176028;19;20018;-64
2023/03/18 05:42:21;;;;;;;;;;;12.20;70.20;;;;;;9176261;19;20408;-64
2023/03/18 05:45:27;;;;;;;19.70;6.82;;;12.20;70.10;;;;;;9171235;19;19915;-65
2023/03/18 05:48:33;;;;;;;16.27;7.97;;;12.20;70.00;;;;;;9175018;19;20028;-65
2023/03/18 05:51:45;;;;;;;18.08;8.50;;;12.20;70.10;;;;;;9176214;19;20025;-64
2023/03/18 05:54:55;;;;;;;19.83;8.13;;;12.10;70.30;;;;;;9173746;19;20022;-65
2023/03/18 05:58:06;;;;;;;19.83;8.55;;;12.10;70.40;;;;;;9170009;19;20014;-65
2023/03/18 06:01:12;;;;;;;16.52;8.35;;;12.10;70.50;;;;;;9170043;19;20026;-65
2023/03/18 06:04:19;;;;;;;21.58;9.13;;;12.10;70.60;;;;;;9163779;19;20014;-64
2023/03/18 06:07:26;;;;;;;17.60;9.32;;;12.10;70.70;;;;;;9163409;19;20113;-65
2023/03/18 06:10:32;;;;;;;21.42;9.95;;;12.10;70.80;;;;;;9167144;19;20472;-65
2023/03/18 06:13:37;;;;;;;24.00;10.13;;;12.10;70.90;;;;;;9169208;19;20022;-65
2023/03/18 06:16:44;;;;;;;21.83;10.88;;;12.10;71.00;;;;;;9171947;19;20018;-65
2023/03/18 06:19:49;;;;;;;25.10;10.18;;;12.00;71.00;;;;;;9177639;19;20018;-65
2023/03/18 06:22:58;;;;;;;23.73;10.18;;;12.00;71.10;;;;;;9174792;19;20011;-65
2023/03/18 06:26:04;;;;;;;23.58;10.85;;;12.00;71.30;;;;;;9179432;19;20022;-65
2023/03/18 06:29:15;;;;;;;27.10;10.43;;;12.00;71.30;;;;;;9175997;19;20077;-65
2023/03/18 06:32:20;;;;;;;24.00;10.63;;;12.00;71.40;;;;;;9183556;19;20033;-65
2023/03/18 06:35:27;;;;;;;19.65;10.32;;;12.00;71.50;;;;;;9180655;19;20364;-65
2023/03/18 06:38:34;;;;;;;22.00;11.65;;;12.00;71.60;;;;;;9181479;19;20022;-64
2023/03/18 06:41:41;;;;;;;28.02;10.27;;;12.00;71.70;;;;;;9178515;19;20021;-65
2023/03/18 06:45:07;;;;;;;22.92;11.48;;;12.00;71.80;;;;;;9181608;19;20018;-65
2023/03/18 06:48:24;;;;;;;31.25;10.65;;;12.00;71.80;;;;;;9181859;19;20476;-66
2023/03/18 06:51:28;;;;;;;28.80;11.02;;;12.00;71.90;;;;;;9180831;19;20031;-65
2023/03/18 06:54:38;;;;;;;25.92;11.32;;;12.00;71.90;;;;;;9182593;19;20018;-66
2023/03/18 06:57:42;;;;;;;30.98;13.32;;;12.00;72.10;;;;;;9178060;19;20018;-66
2023/03/18 07:00:49;;;;;;;30.90;12.15;;;12.00;72.10;;;;;;9181021;19;20015;-66
2023/03/18 07:04:02;;;;;;;17.95;11.43;;;12.00;72.20;;;;;;9181202;19;20025;-66
2023/03/18 07:07:09;;;;;;;26.20;11.63;;;12.00;72.30;;;;;;9182047;19;20022;-66
2023/03/18 07:10:21;;;;;;;26.02;12.30;;;12.00;72.40;;;;;;9181482;19;20037;-66
2023/03/18 07:13:28;;;;;;;;;;;12.00;72.60;;;;;;9181586;19;20357;-66
2023/03/18 07:16:32;;;;;;;29.73;10.82;;;12.00;72.40;;;;;;9178074;19;19934;-66
2023/03/18 07:19:38;;;;;;;26.25;12.38;;;12.00;72.20;;;;;;9179951;19;20371;-66
2023/03/18 07:22:42;;;;;;;22.40;11.57;;;12.00;72.40;;;;;;9180260;19;20022;-66
2023/03/18 07:25:51;;;;;;;24.80;12.02;;;12.00;72.60;;;;;;9179771;19;20019;-66
2023/03/18 07:28:56;;;;;;;18.67;10.13;;;12.10;72.80;;;;;;9180088;19;20030;-66
2023/03/18 07:32:03;;;;;;;18.83;10.80;;;12.10;72.90;;;;;;9179998;19;20495;-66
2023/03/18 07:35:09;;;;;;;22.27;12.07;;;12.10;72.90;;;;;;9179316;19;20373;-66
2023/03/18 07:38:16;;;;;;;21.58;11.57;;;12.10;73.00;;;;;;9182071;19;20502;-66
2023/03/18 07:41:22;;;;;;;24.10;11.20;;;12.10;73.20;;;;;;9182160;19;20019;-66
2023/03/18 07:44:29;;;;;;;22.00;11.63;;;12.10;73.20;;;;;;9180607;19;20007;-66
2023/03/18 07:47:33;;;;;;;25.55;11.73;;;12.10;73.30;;;;;;9181189;19;20014;-66
2023/03/18 07:50:39;;;;;;;25.35;12.93;;;12.20;74.00;;;;;;9182683;19;20022;-65
2023/03/18 07:53:44;;;;;;;25.10;11.25;;;12.20;73.50;;;;;;9184492;19;20082;-66
2023/03/18 07:56:53;;;;;;;31.45;13.07;;;12.20;73.50;;;;;;9178726;19;20010;-66
2023/03/18 07:59:58;;;;;;;23.38;11.98;;;12.20;73.70;;;;;;9175935;19;20480;-66
2023/03/18 08:03:04;;;;;;;27.73;12.32;;;12.30;73.90;;;;;;9179117;19;20018;-66
2023/03/18 08:06:10;;;;;;;28.77;12.95;;;12.30;73.80;;;;;;9179882;19;20706;-66
2023/03/18 08:09:16;;;;;;;28.88;14.13;;;12.30;73.90;;;;;;9177544;19;20017;-66
2023/03/18 08:12:22;;;;;;;34.20;13.32;;;12.40;74.10;;;;;;9180055;19;20030;-66
2023/03/18 08:15:28;;;;;;;29.30;14.52;;;12.40;74.40;;;;;;9178992;19;20014;-66
2023/03/18 08:18:32;;;;;;;;;;;12.50;74.50;;;;;;9181235;19;20484;-66
2023/03/18 08:21:38;;;;;;;23.35;12.25;;;12.60;74.40;;;;;;9179921;19;19919;-66
2023/03/18 08:24:42;;;;;;;21.90;12.38;;;12.70;74.80;;;;;;9180371;19;20479;-66
2023/03/18 08:27:53;;;;;;;25.65;13.15;;;12.80;74.40;;;;;;9178501;19;20486;-66
2023/03/18 08:30:58;;;;;;;25.90;14.52;;;12.80;74.40;;;;;;9178036;19;20494;-67
2023/03/18 08:34:04;;;;;;;28.88;14.35;;;12.90;74.60;;;;;;9174615;19;20026;-67
2023/03/18 08:37:08;;;;;;;26.17;14.00;;;13.00;74.70;;;;;;9173948;19;20015;-66
2023/03/18 08:40:14;;;;;;;27.30;13.65;;;13.20;74.90;;;;;;9179412;19;20015;-66
2023/03/18 08:43:22;;;;;;;24.77;13.93;;;13.30;75.00;;;;;;9179350;19;20393;-66
2023/03/18 08:46:28;;;;;;;29.65;14.02;;;13.50;75.60;;;;;;9177636;19;20487;-66
2023/03/18 08:49:32;;;;;;;31.60;14.80;;;13.60;74.90;;;;;;9179445;19;20026;-66
2023/03/18 08:52:40;;;;;;;32.92;15.13;;;13.70;74.90;;;;;;9179468;19;20010;-66
2023/03/18 08:55:43;;;;;;;29.42;15.75;;;13.80;74.80;;;;;;9177841;19;20010;-66
2023/03/18 08:58:52;;;;;;;23.40;12.93;;;13.90;74.80;;;;;;9171513;19;20003;-66
2023/03/18 09:01:56;;;;;;;24.13;12.48;;;14.00;75.00;;;;;;9178776;19;20368;-66
2023/03/18 09:05:02;;;;;;;22.75;12.60;;;14.20;75.00;;;;;;9178744;19;20021;-66
2023/03/18 09:08:06;;;;;;;23.15;12.70;;;14.30;75.00;;;;;;9174778;19;20015;-66
2023/03/18 09:11:13;;;;;;;27.13;13.20;;;14.40;74.90;;;;;;9176607;19;20017;-66
2023/03/18 09:14:19;;;;;;;24.95;12.80;;;14.50;74.90;;;;;;9176396;19;20086;-66
2023/03/18 09:17:25;;;;;;;29.40;15.07;;;14.60;74.80;;;;;;9173477;19;20545;-66
2023/03/18 09:20:50;;;;;;;23.17;12.57;;;14.70;74.70;;;;;;9176742;19;20034;-66
2023/03/18 09:23:56;;;;;;;25.20;12.75;;;14.80;74.60;;;;;;9176147;19;20029;-66
2023/03/18 09:27:00;;;;;;;24.00;13.38;;;14.80;74.60;;;;;;9178218;19;20010;-66
2023/03/18 09:30:11;;;;;;;21.35;12.80;;;14.90;74.50;;;;;;9173512;19;20037;-66
2023/03/18 09:33:15;;;;;;;26.80;14.15;;;14.90;74.50;;;;;;9177200;19;20027;-66
2023/03/18 09:36:21;;;;;;;19.02;12.80;;;15.00;74.50;;;;;;9174918;19;20364;-66
2023/03/18 09:39:26;;;;;;;22.20;12.90;;;15.10;74.60;;;;;;9178402;19;20018;-66
2023/03/18 09:42:50;;;;;;;25.98;13.18;;;15.10;74.60;;;;;;9176726;19;20014;-66
2023/03/18 09:46:06;;;;;;;22.15;12.30;;;15.20;74.80;;;;;;9173459;19;20029;-67
2023/03/18 09:49:54;;;;;;;19.60;11.65;;;15.30;74.70;;;;;;9172985;19;20018;-67
2023/03/18 09:53:12;;;;;;;21.77;11.48;;;15.40;74.60;;;;;;9169519;19;20003;-67
2023/03/18 09:56:24;;;;;;;18.17;11.85;;;15.50;74.40;;;;;;9161541;19;20015;-67
2023/03/18 09:59:37;;;;;;;22.10;11.38;;;15.70;74.50;;;;;;9162794;19;20716;-67
2023/03/18 10:02:49;;;;;;;16.92;10.88;;;15.80;74.40;;;;;;9168522;19;20013;-67
2023/03/18 10:05:57;;;;;;;18.98;10.35;;;15.80;74.40;;;;;;9166941;19;20471;-67
2023/03/18 10:09:10;;;;;;;19.00;10.85;;;15.90;74.20;;;;;;9165565;19;20014;-66
2023/03/18 10:12:19;;;;;;;15.88;10.18;;;16.10;74.10;;;;;;9168533;19;20030;-66
2023/03/18 10:15:32;;;;;;;18.48;11.30;;;16.10;74.00;;;;;;9167641;19;20021;-66
2023/03/18 10:18:42;;;;;;;16.23;9.73;;;16.20;73.80;;;;;;9168109;19;20030;-66
2023/03/18 10:21:53;;;;;;;19.38;11.65;;;16.30;73.70;;;;;;9168000;19;20022;-66
2023/03/18 10:25:06;;;;;;;20.33;10.73;;;16.30;73.70;;;;;;9165400;19;20489;-66
2023/03/18 10:28:37;;;;;;;21.80;11.73;;;16.40;73.70;;;;;;9165346;19;20018;-67
2023/03/18 10:31:55;;;;;;;19.50;10.07;;;16.40;73.60;;;;;;9166001;19;20029;-66
2023/03/18 10:35:19;;;;;;;23.75;11.80;;;16.50;73.60;;;;;;9167036;19;20015;-66
2023/03/18 10:38:26;;;;;;;23.48;10.85;;;16.50;73.50;;;;;;9161409;19;20022;-67
2023/03/18 10:41:36;;;;;;;26.45;11.57;;;16.60;73.50;;;;;;9167074;19;20014;-66
2023/03/18 10:44:44;;;;;;;14.98;8.15;;;16.60;73.40;;;;;;9164054;19;20025;-67
2023/03/18 10:48:01;;;;;;;13.25;7.75;;;16.70;73.40;;;;;;9164004;19;20081;-67
2023/03/18 10:51:17;;;;;;;18.63;9.48;;;16.70;73.40;;;;;;9165572;19;20567;-67
2023/03/18 10:54:28;;;;;;;19.80;9.95;;;16.80;73.40;;;;;;9165556;19;20019;-67
2023/03/18 10:57:32;;;;;;;13.25;8.02;;;16.90;73.40;;;;;;9159213;19;20019;-67
2023/03/18 11:00:38;;;;;;;16.70;7.68;;;17.00;73.30;;;;;;9174861;19;20490;-67
2023/03/18 11:03:45;;;;;;;13.32;8.05;;;17.20;73.20;;;;;;9176042;19;20033;-67
2023/03/18 11:06:56;;;;;;;15.20;8.38;;;17.30;73.10;;;;;;9174306;19;20029;-66
2023/03/18 11:10:14;;;;;;;10.68;6.85;;;17.40;72.90;;;;;;9171476;19;20397;-67
2023/03/18 11:13:22;;;;;;;17.15;8.10;;;17.50;72.70;;;;;;9174012;19;20011;-67
2023/03/18 11:16:37;;;;;;;10.52;6.50;;;17.60;72.70;;;;;;9174457;19;20730;-67
2023/03/18 11:19:48;;;;;;;11.07;5.95;;;17.70;72.50;;;;;;9172257;19;20467;-67
2023/03/18 11:22:56;;;;;;;13.48;6.90;;;17.70;72.30;;;;;;9172019;19;20018;-66
2023/03/18 11:26:03;;;;;;;9.43;5.90;;;17.80;72.20;;;;;;9178642;19;20455;-66
2023/03/18 11:29:14;;;;;;;12.38;6.03;;;17.80;72.10;;;;;;9175238;19;20081;-66
2023/03/18 11:32:27;;;;;;;11.70;6.60;;;17.80;71.90;;;;;;9172462;19;20025;-68
2023/03/18 11:35:38;;;;;;;10.43;4.90;;;17.80;71.90;;;;;;9173817;19;20018;-67
2023/03/18 11:38:58;;;;;;;8.07;4.57;;;17.90;71.90;;;;;;9174518;19;20014;-67
2023/03/18 11:42:02;;;;;;;7.30;4.25;;;18.00;71.80;;;;;;9174065;19;20017;-67
2023/03/18 11:45:28;;;;;;;10.52;5.30;;;18.10;71.90;;;;;;9172737;19;20010;-67
2023/03/18 11:48:36;;;;;;;8.18;4.65;;;18.20;71.70;;;;;;9173538;19;20025;-67
2023/03/18 11:51:47;;;;;;;8.52;4.22;;;18.40;71.60;;;;;;9173674;19;20018;-67
2023/03/18 11:55:12;;;;;;;11.32;4.97;;;18.50;71.50;;;;;;9172008;19;20027;-67
2023/03/18 11:58:54;;;;;;;8.05;5.22;;;18.60;71.20;;;;;;9166724;19;20022;-66
2023/03/18 12:02:12;;;;;;;5.63;4.25;;;18.70;71.00;;;;;;9174459;19;20482;-65
2023/03/18 12:05:45;;;;;;;9.70;3.95;;;18.90;71.00;;;;;;9173606;19;20026;-65
2023/03/18 12:09:02;;;;;;;8.98;3.85;;;19.00;70.70;;;;;;9170012;19;20038;-65
2023/03/18 12:12:25;;;;;;;7.32;3.95;;;19.20;70.70;;;;;;9171086;19;20027;-65
2023/03/18 12:15:41;;;;;;;9.90;3.80;;;19.30;70.40;;;;;;9169089;19;20029;-65
2023/03/18 12:18:58;;;;;;;8.77;3.15;;;19.40;70.20;;;;;;9167331;19;20026;-65
2023/03/18 12:22:27;;;;;;;7.38;3.85;;;19.50;70.00;;;;;;9167356;19;20090;-65
2023/03/18 12:25:53;;;;;;;4.57;3.28;;;19.50;69.60;;;;;;9172143;19;20010;-65
2023/03/18 12:29:19;;;;;;;7.38;3.13;;;19.60;69.50;;;;;;9170642;19;20022;-65
2023/03/18 12:32:30;;;;;;;7.20;3.35;;;19.70;69.30;;;;;;9170054;19;20018;-66
2023/03/18 12:35:47;;;;;;;5.60;2.60;;;19.80;69.30;;;;;;9172746;19;20110;-65
2023/03/18 12:39:28;;;;;;;5.20;2.50;;;19.70;69.50;;;;;;9172513;19;20749;-65
2023/03/18 12:42:46;;;;;;;3.20;2.13;;;19.80;68.60;;;;;;9169064;19;20379;-65
2023/03/18 12:46:02;;;;;;;5.20;2.22;;;19.80;68.80;;;;;;9169713;19;20026;-65
2023/03/18 12:49:13;;;;;;;5.03;2.70;;;19.80;68.60;;;;;;9172378;19;20283;-65
2023/03/18 12:52:28;;;;;;;3.25;2.03;;;19.80;68.50;;;;;;9169783;19;20474;-65
2023/03/18 12:55:37;;;;;;;9.02;2.33;;;19.90;68.40;;;;;;9171294;19;20491;-65
2023/03/18 12:58:47;;;;;;;4.40;2.30;;;19.90;68.30;;;;;;9166701;19;20014;-65
2023/03/18 13:02:14;;;;;;;5.65;2.65;;;19.90;68.10;;;;;;9171021;19;20029;-65
2023/03/18 13:05:29;;;;;;;5.45;3.20;;;20.00;67.80;;;;;;9171713;19;20486;-65
2023/03/18 13:08:58;;;;;;;6.60;2.90;;;20.00;67.80;;;;;;9169065;19;20613;-65
2023/03/18 13:12:12;;;;;;;5.55;2.75;;;20.00;67.40;;;;;;9171164;19;20029;-65
2023/03/18 13:15:28;;;;;;;4.18;2.45;;;20.10;67.50;;;;;;9162579;19;20669;-65
2023/03/18 13:18:39;;;;;;;6.60;2.80;;;20.00;67.30;;;;;;9175537;19;20032;-64
2023/03/18 13:21:50;;;;;;;3.65;2.53;;;20.00;67.20;;;;;;9172156;19;20475;-65
2023/03/18 13:25:04;;;;;;;5.88;2.70;;;20.00;67.20;;;;;;9173007;19;20010;-64
2023/03/18 13:28:42;;;;;;;5.72;3.00;;;20.00;67.00;;;;;;9169396;19;20896;-66
2023/03/18 13:31:55;;;;;;;5.50;2.72;;;19.90;66.80;;;;;;9168642;19;20014;-65
2023/03/18 13:35:27;;;;;;;3.83;2.60;;;19.90;66.90;;;;;;9169360;19;20568;-64
2023/03/18 13:38:47;;;;;;;4.32;2.72;;;19.90;66.80;;;;;;9165352;19;20098;-65
2023/03/18 13:42:17;;;;;;;5.57;2.78;;;19.90;66.80;;;;;;9168735;19;20330;-65
2023/03/18 13:45:28;;;;;;;6.60;2.65;;;19.80;66.60;;;;;;9169329;19;20011;-66
2023/03/18 13:48:35;;;;;;;6.65;3.25;;;19.80;66.80;;;;;;9168056;19;20010;-65
2023/03/18 13:51:51;;;;;;;3.92;2.30;;;19.80;66.70;;;;;;9167979;19;21294;-65
2023/03/18 13:55:03;;;;;;;3.58;2.28;;;19.80;66.40;;;;;;9167094;19;20015;-65
2023/03/18 13:58:21;;;;;;;3.90;2.28;;;19.80;66.40;;;;;;9160577;19;20043;-65
2023/03/18 14:01:34;;;;;;;3.47;2.35;;;19.80;66.10;;;;;;9163185;19;20019;-65
2023/03/18 14:04:48;;;;;;;3.95;1.70;;;19.90;66.30;;;;;;9162531;19;20045;-65
2023/03/18 14:07:56;;;;;;;5.28;1.70;;;19.90;66.10;;;;;;9164712;19;20018;-65
2023/03/18 14:11:49;;;;;;;3.35;1.52;;;19.80;66.10;;;;;;9161613;19;20720;-65
2023/03/18 14:15:04;;;;;;;6.97;1.77;;;19.80;65.70;;;;;;9156259;19;20022;-66
2023/03/18 14:18:23;;;;;;;2.72;1.42;;;19.70;65.80;;;;;;9157659;19;20031;-65
2023/03/18 14:21:34;;;;;;;1.85;1.33;;;19.70;65.70;;;;;;9162254;19;20106;-65
2023/03/18 14:24:42;;;;;;;3.90;1.67;;;19.70;65.90;;;;;;9161914;19;20779;-65
2023/03/18 14:27:52;;;;;;;3.78;1.30;;;19.60;65.80;;;;;;9163871;19;20018;-65
2023/03/18 14:31:12;;;;;;;3.78;1.42;;;19.60;65.70;;;;;;9167774;19;20499;-65
2023/03/18 14:34:30;;;;;;;4.80;2.10;;;19.50;65.60;;;;;;9170579;19;20015;-65
2023/03/18 14:37:37;;;;;;;3.08;1.60;;;19.50;65.50;;;;;;9173792;19;20010;-65
2023/03/18 14:40:50;;;;;;;5.55;2.00;;;19.40;65.60;;;;;;9172435;19;20014;-65
2023/03/18 14:44:04;;;;;;;5.50;1.95;;;19.40;65.50;;;;;;9165246;19;20697;-65
2023/03/18 14:47:19;;;;;;;4.90;1.80;;;19.30;66.10;;;;;;9175089;19;20030;-65
2023/03/18 14:50:43;;;;;;;1.70;1.27;;;19.20;65.40;;;;;;9172340;19;20180;-66
2023/03/18 14:53:53;;;;;;;3.45;1.45;;;19.20;65.60;;;;;;9172996;19;20376;-64
2023/03/18 14:57:05;;;;;;;3.47;1.83;;;19.10;65.50;;;;;;9164321;19;20015;-65
2023/03/18 15:00:15;;;;;;;4.40;1.63;;;19.10;65.70;;;;;;9170908;19;20439;-63
2023/03/18 15:03:23;;;;;;;4.30;2.00;;;19.00;65.70;;;;;;9171783;19;20015;-63
2023/03/18 15:06:31;;;;;;;3.83;1.83;;;19.00;65.70;;;;;;9162767;19;20015;-63
2023/03/18 15:09:37;;;;;;;2.60;1.42;;;18.90;65.80;;;;;;9169714;19;20018;-63
2023/03/18 15:12:45;;;;;;;4.70;1.88;;;18.90;65.90;;;;;;9172117;19;20018;-63
2023/03/18 15:15:53;;;;;;;3.05;1.40;;;18.80;65.80;;;;;;9171196;19;20014;-65
2023/03/18 15:19:00;;;;;;;3.25;1.50;;;18.80;66.50;;;;;;9168548;19;20029;-63
2023/03/18 15:22:07;;;;;;;2.03;1.42;;;18.70;65.90;;;;;;9171380;19;20045;-63
2023/03/18 15:25:19;;;;;;;4.60;1.95;;;18.70;65.90;;;;;;9173097;19;20029;-65
2023/03/18 15:28:30;;;;;;;6.22;2.17;;;18.60;65.80;;;;;;9173438;19;20023;-64
2023/03/18 15:31:41;;;;;;;5.75;1.33;;;18.60;65.80;;;;;;9173149;19;20014;-64
2023/03/18 15:34:47;;;;;;;8.05;2.45;;;18.50;65.80;;;;;;9173346;19;20030;-63
2023/03/18 15:38:06;;;;;;;4.53;2.10;;;18.50;65.90;;;;;;9168881;19;20019;-64
2023/03/18 15:41:12;;;;;;;4.95;2.10;;;18.40;65.80;;;;;;9173659;19;20486;-63
2023/03/18 15:44:27;;;;;;;3.15;1.30;;;18.40;65.90;;;;;;9173702;19;20021;-63
2023/03/18 15:47:33;;;;;;;1.65;1.13;;;18.30;65.80;;;;;;9175519;19;20049;-64
2023/03/18 15:50:52;;;;;;;2.38;1.10;;;18.30;65.80;;;;;;9178220;19;20014;-63
2023/03/18 15:53:57;;;;;;;2.90;1.52;;;18.20;65.80;;;;;;9179701;19;20015;-63
2023/03/18 15:57:12;;;;;;;4.15;1.67;;;18.20;65.80;;;;;;9174272;19;20030;-63
2023/03/18 16:00:19;;;;;;;3.17;1.20;;;18.10;65.60;;;;;;9177595;19;20704;-63
2023/03/18 16:03:30;;;;;;;5.40;1.63;;;18.10;65.70;;;;;;9176316;19;20462;-65
2023/03/18 16:06:35;;;;;;;5.93;1.55;;;18.00;65.70;;;;;;9179817;19;20011;-64
2023/03/18 16:09:41;;;;;;;3.25;1.40;;;18.00;65.70;;;;;;9174540;19;20014;-63
2023/03/18 16:12:47;;;;;;;2.78;1.50;;;17.90;65.70;;;;;;9177672;19;20018;-64
2023/03/18 16:15:55;;;;;;;3.80;1.65;;;17.90;65.80;;;;;;9160730;19;20007;-63
2023/03/18 16:19:00;;;;;;;1.95;1.33;;;17.80;65.70;;;;;;9168679;19;20018;-63